createdAt,value
2019-04-03T00:00:41.044Z,5.60
2019-04-03T00:01:45.502Z,7.50
2019-04-03T00:02:49.728Z,8.65
2019-04-03T00:03:53.840Z,6.97
2019-04-03T00:04:58.007Z,7.20
2019-04-03T00:06:02.239Z,7.15
2019-04-03T00:07:06.433Z,6.28
2019-04-03T00:08:10.592Z,7.90
2019-04-03T00:09:14.779Z,7.67
2019-04-03T00:10:18.947Z,6.43
2019-04-03T00:11:24.751Z,5.10
2019-04-03T00:12:28.954Z,8.18
2019-04-03T00:13:33.116Z,6.40
2019-04-03T00:14:37.544Z,6.58
2019-04-03T00:15:42.792Z,6.73
2019-04-03T00:16:47.570Z,6.67
2019-04-03T00:17:51.825Z,7.22
2019-04-03T00:18:55.991Z,8.00
2019-04-03T00:20:00.180Z,7.30
2019-04-03T00:21:04.345Z,6.05
2019-04-03T00:22:08.651Z,7.85
2019-04-03T00:23:12.899Z,6.67
2019-04-03T00:24:17.055Z,8.87
2019-04-03T00:25:22.320Z,6.70
2019-04-03T00:26:30.244Z,6.33
2019-04-03T00:27:33.461Z,6.75
2019-04-03T00:28:37.733Z,6.55
2019-04-03T00:29:41.895Z,5.47
2019-04-03T00:30:46.401Z,7.35
2019-04-03T00:31:53.053Z,5.67
2019-04-03T00:32:56.555Z,6.70
2019-04-03T00:34:00.883Z,8.53
2019-04-03T00:35:09.074Z,6.75
2019-04-03T00:36:13.328Z,6.27
2019-04-03T00:37:17.563Z,8.30
2019-04-03T00:38:23.981Z,7.60
2019-04-03T00:39:27.774Z,6.58
2019-04-03T00:40:32.212Z,6.80
2019-04-03T00:41:36.434Z,6.10
2019-04-03T00:42:40.548Z,6.53
2019-04-03T00:43:44.857Z,7.33
2019-04-03T00:44:49.004Z,7.37
2019-04-03T00:45:54.536Z,6.17
2019-04-03T00:46:59.085Z,5.90
2019-04-03T00:48:03.208Z,6.90
2019-04-03T00:49:07.441Z,6.30
2019-04-03T00:50:11.610Z,5.43
2019-04-03T00:51:15.777Z,6.83
2019-04-03T00:52:20.049Z,7.03
2019-04-03T00:53:24.352Z,5.35
2019-04-03T00:54:30.880Z,8.20
2019-04-03T00:55:34.511Z,6.62
2019-04-03T00:56:38.680Z,6.80
2019-04-03T00:57:42.847Z,6.70
2019-04-03T00:58:47.012Z,6.15
2019-04-03T00:59:51.273Z,6.55
2019-04-03T01:00:56.333Z,7.75
2019-04-03T01:02:01.054Z,7.60
2019-04-03T01:03:06.031Z,5.80
2019-04-03T01:04:10.227Z,6.67
2019-04-03T01:05:14.462Z,5.53
2019-04-03T01:06:18.625Z,7.23
2019-04-03T01:07:22.860Z,5.67
2019-04-03T01:08:29.061Z,7.67
2019-04-03T01:09:32.931Z,7.65
2019-04-03T01:10:37.171Z,6.20
2019-04-03T01:11:41.335Z,6.53
2019-04-03T01:12:45.506Z,5.72
2019-04-03T01:13:50.097Z,6.62
2019-04-03T01:14:54.294Z,7.03
2019-04-03T01:15:58.460Z,7.03
2019-04-03T01:17:04.414Z,9.03
2019-04-03T01:18:08.918Z,7.62
2019-04-03T01:19:13.083Z,6.47
2019-04-03T01:20:17.252Z,7.53
2019-04-03T01:21:21.420Z,6.67
2019-04-03T01:22:26.085Z,7.22
2019-04-03T01:23:30.417Z,6.75
2019-04-03T01:24:34.681Z,5.25
2019-04-03T01:25:39.692Z,8.85
2019-04-03T01:26:44.405Z,7.30
2019-04-03T01:27:48.613Z,8.23
2019-04-03T01:28:52.851Z,6.40
2019-04-03T01:29:57.100Z,6.72
2019-04-03T01:31:01.260Z,6.95
2019-04-03T01:32:05.834Z,7.35
2019-04-03T01:33:10.072Z,8.40
2019-04-03T01:34:15.646Z,7.00
2019-04-03T01:35:20.205Z,8.57
2019-04-03T01:36:24.435Z,6.08
2019-04-03T01:37:28.656Z,6.55
2019-04-03T01:38:32.947Z,6.87
2019-04-03T01:39:37.187Z,6.22
2019-04-03T01:40:41.351Z,6.70
2019-04-03T01:41:45.812Z,6.72
2019-04-03T01:42:52.252Z,7.25
2019-04-03T01:43:55.952Z,8.13
2019-04-03T01:45:00.115Z,8.10
2019-04-03T01:46:04.978Z,8.74
2019-04-03T01:47:09.232Z,8.63
2019-04-03T01:48:15.921Z,6.27
2019-04-03T01:49:20.147Z,8.87
2019-04-03T01:50:24.540Z,6.97
2019-04-03T01:51:29.705Z,6.58
2019-04-03T01:52:35.688Z,8.60
2019-04-03T01:53:39.854Z,7.78
2019-04-03T01:54:45.813Z,7.72
2019-04-03T01:55:50.096Z,7.30
2019-04-03T01:56:54.623Z,9.58
2019-04-03T01:57:58.889Z,7.37
2019-04-03T01:59:06.096Z,8.33
2019-04-03T02:00:09.556Z,6.75
2019-04-03T02:01:13.797Z,7.43
2019-04-03T02:02:17.961Z,7.97
2019-04-03T02:03:22.265Z,6.42
2019-04-03T02:04:26.497Z,7.70
2019-04-03T02:05:30.671Z,6.70
2019-04-03T02:06:34.913Z,7.95
2019-04-03T02:07:39.078Z,7.40
2019-04-03T02:08:44.861Z,6.90
2019-04-03T02:09:49.774Z,7.58
2019-04-03T02:10:54.048Z,7.92
2019-04-03T02:11:58.467Z,8.70
2019-04-03T02:13:02.652Z,8.03
2019-04-03T02:14:07.017Z,9.73
2019-04-03T02:15:11.190Z,9.63
2019-04-03T02:16:15.950Z,9.73
2019-04-03T02:17:20.157Z,7.27
2019-04-03T02:18:25.468Z,9.10
2019-04-03T02:19:31.091Z,8.10
2019-04-03T02:20:35.417Z,9.03
2019-04-03T02:21:39.645Z,7.45
2019-04-03T02:22:43.876Z,8.43
2019-04-03T02:23:48.043Z,7.97
2019-04-03T02:24:52.683Z,8.55
2019-04-03T02:25:56.852Z,6.42
2019-04-03T02:27:03.166Z,10.15
2019-04-03T02:28:07.026Z,8.40
2019-04-03T02:29:11.455Z,11.90
2019-04-03T02:30:15.682Z,7.70
2019-04-03T02:31:20.497Z,6.50
2019-04-03T02:32:24.937Z,10.53
2019-04-03T02:33:29.607Z,8.43
2019-04-03T02:34:35.631Z,9.63
2019-04-03T02:35:40.591Z,5.87
2019-04-03T02:36:45.651Z,6.97
2019-04-03T02:37:50.744Z,8.33
2019-04-03T02:38:55.050Z,9.40
2019-04-03T02:40:00.469Z,7.62
2019-04-03T02:41:05.499Z,7.62
2019-04-03T02:42:10.534Z,7.77
2019-04-03T02:43:15.534Z,8.10
2019-04-03T02:44:20.151Z,8.97
2019-04-03T02:45:25.033Z,9.60
2019-04-03T02:46:29.830Z,7.93
2019-04-03T02:47:34.696Z,8.28
2019-04-03T02:48:39.101Z,7.78
2019-04-03T02:49:43.900Z,7.42
2019-04-03T02:50:48.583Z,8.10
2019-04-03T02:51:53.951Z,8.60
2019-04-03T02:52:59.115Z,8.88
2019-04-03T02:54:04.250Z,8.23
2019-04-03T02:55:08.879Z,6.58
2019-04-03T02:56:13.907Z,7.77
2019-04-03T02:57:18.519Z,7.43
2019-04-03T02:58:23.439Z,8.70
2019-04-03T02:59:27.751Z,8.58
2019-04-03T03:00:33.595Z,8.48
2019-04-03T03:01:39.755Z,9.15
2019-04-03T03:02:45.380Z,7.45
2019-04-03T03:03:50.273Z,7.78
2019-04-03T03:04:55.697Z,9.23
2019-04-03T03:06:01.305Z,7.40
2019-04-03T03:07:05.691Z,7.87
2019-04-03T03:08:10.221Z,9.57
2019-04-03T03:09:14.583Z,7.53
2019-04-03T03:10:20.367Z,7.77
2019-04-03T03:11:25.209Z,8.53
2019-04-03T03:12:30.327Z,7.53
2019-04-03T03:13:35.828Z,9.25
2019-04-03T03:14:40.972Z,8.95
2019-04-03T03:15:45.556Z,8.63
2019-04-03T03:16:50.852Z,7.45
2019-04-03T03:17:56.356Z,9.50
2019-04-03T03:19:01.887Z,7.70
2019-04-03T03:20:07.843Z,6.92
2019-04-03T03:21:13.834Z,11.57
2019-04-03T03:22:18.909Z,8.07
2019-04-03T03:23:24.285Z,7.23
2019-04-03T03:24:30.127Z,7.67
2019-04-03T03:25:34.464Z,8.63
2019-04-03T03:26:38.615Z,7.80
2019-04-03T03:27:43.294Z,9.83
2019-04-03T03:28:48.228Z,8.33
2019-04-03T03:29:52.347Z,10.25
2019-04-03T03:31:01.999Z,7.30
2019-04-03T03:32:12.602Z,9.60
2019-04-03T03:33:26.985Z,10.35
2019-04-03T03:34:15.512Z,7.50
2019-04-03T03:35:28.529Z,6.90
2019-04-03T03:36:26.877Z,8.00
2019-04-03T03:37:34.425Z,9.23
2019-04-03T03:38:39.756Z,8.93
2019-04-03T03:39:44.539Z,8.58
2019-04-03T03:40:50.219Z,9.10
2019-04-03T03:41:58.073Z,7.47
2019-04-03T03:43:05.077Z,9.98
2019-04-03T03:44:10.523Z,8.18
2019-04-03T03:45:15.811Z,6.97
2019-04-03T03:46:19.415Z,6.53
2019-04-03T03:47:23.657Z,12.37
2019-04-03T03:48:27.921Z,9.45
2019-04-03T03:49:32.090Z,10.13
2019-04-03T03:50:36.896Z,8.13
2019-04-03T03:51:41.441Z,8.53
2019-04-03T03:52:45.645Z,8.73
2019-04-03T03:53:49.911Z,8.18
2019-04-03T03:54:54.079Z,8.88
2019-04-03T03:56:01.864Z,8.58
2019-04-03T03:57:07.367Z,8.58
2019-04-03T03:58:13.363Z,8.10
2019-04-03T03:59:18.494Z,8.57
2019-04-03T04:00:24.362Z,10.10
2019-04-03T04:01:31.792Z,8.70
2019-04-03T04:02:36.789Z,8.10
2019-04-03T04:03:42.182Z,8.50
2019-04-03T04:04:48.632Z,7.95
2019-04-03T04:05:55.687Z,8.68
2019-04-03T04:07:02.011Z,9.60
2019-04-03T04:08:10.633Z,9.32
2019-04-03T04:09:15.638Z,9.63
2019-04-03T04:10:18.585Z,9.07
2019-04-03T04:11:22.740Z,7.57
2019-04-03T04:12:27.070Z,8.18
2019-04-03T04:13:31.229Z,10.68
2019-04-03T04:14:35.995Z,6.87
2019-04-03T04:15:40.226Z,7.33
2019-04-03T04:16:44.411Z,9.50
2019-04-03T04:17:51.127Z,8.65
2019-04-03T04:18:57.366Z,7.08
2019-04-03T04:20:05.170Z,9.43
2019-04-03T04:21:09.451Z,7.55
2019-04-03T04:22:15.448Z,7.00
2019-04-03T04:23:22.989Z,8.57
2019-04-03T04:24:27.629Z,8.95
2019-04-03T04:25:31.112Z,7.90
2019-04-03T04:26:35.661Z,7.53
2019-04-03T04:27:39.860Z,7.72
2019-04-03T04:28:44.130Z,10.00
2019-04-03T04:29:48.257Z,8.68
2019-04-03T04:30:52.467Z,8.77
2019-04-03T04:31:56.902Z,8.50
2019-04-03T04:33:01.082Z,6.92
2019-04-03T04:34:05.364Z,10.80
2019-04-03T04:35:10.910Z,10.27
2019-04-03T04:36:15.428Z,7.47
2019-04-03T04:37:19.668Z,11.13
2019-04-03T04:38:26.183Z,9.03
2019-04-03T04:39:29.807Z,8.45
2019-04-03T04:40:34.054Z,8.25
2019-04-03T04:41:38.226Z,10.05
2019-04-03T04:42:42.799Z,8.35
2019-04-03T04:43:47.007Z,10.23
2019-04-03T04:44:51.337Z,9.18
2019-04-03T04:45:55.454Z,7.42
2019-04-03T04:46:59.619Z,8.20
2019-04-03T04:48:04.123Z,9.18
2019-04-03T04:49:08.365Z,8.88
2019-04-03T04:50:12.803Z,10.40
2019-04-03T04:51:16.965Z,8.57
2019-04-03T04:52:21.244Z,9.37
2019-04-03T04:53:25.403Z,9.38
2019-04-03T04:54:30.629Z,9.53
2019-04-03T04:55:35.983Z,11.70
2019-04-03T04:56:41.138Z,9.20
2019-04-03T04:57:45.324Z,10.23
2019-04-03T04:58:52.235Z,9.10
2019-04-03T04:59:56.456Z,9.73
2019-04-03T05:01:00.997Z,11.40
2019-04-03T05:02:05.239Z,10.98
2019-04-03T05:03:09.408Z,9.43
2019-04-03T05:04:15.364Z,9.80
2019-04-03T05:05:19.660Z,8.00
2019-04-03T05:06:23.921Z,10.80
2019-04-03T05:07:30.318Z,10.43
2019-04-03T05:08:34.027Z,11.48
2019-04-03T05:09:38.806Z,10.53
2019-04-03T05:10:44.030Z,10.70
2019-04-03T05:11:48.238Z,9.90
2019-04-03T05:12:52.477Z,10.80
2019-04-03T05:13:56.712Z,9.15
2019-04-03T05:15:00.884Z,11.40
2019-04-03T05:16:05.188Z,11.88
2019-04-03T05:17:09.393Z,11.27
2019-04-03T05:18:13.559Z,9.97
2019-04-03T05:19:19.826Z,11.20
2019-04-03T05:20:24.116Z,12.35
2019-04-03T05:21:28.397Z,9.85
2019-04-03T05:22:33.784Z,9.70
2019-04-03T05:23:38.003Z,9.15
2019-04-03T05:24:42.185Z,10.63
2019-04-03T05:25:46.481Z,11.35
2019-04-03T05:26:50.898Z,12.98
2019-04-03T05:27:55.247Z,10.72
2019-04-03T05:28:59.419Z,9.63
2019-04-03T05:30:06.084Z,8.06
2019-04-03T05:31:10.239Z,7.70
2019-04-03T05:32:14.414Z,12.67
2019-04-03T05:33:18.633Z,10.63
2019-04-03T05:34:22.800Z,8.73
2019-04-03T05:35:26.963Z,9.58
2019-04-03T05:36:31.130Z,11.22
2019-04-03T05:37:35.306Z,9.28
2019-04-03T05:38:39.706Z,10.55
2019-04-03T05:39:43.835Z,9.13
2019-04-03T05:40:48.084Z,8.08
2019-04-03T05:41:52.491Z,9.18
2019-04-03T05:42:58.090Z,11.15
2019-04-03T05:44:03.286Z,8.98
2019-04-03T05:45:07.949Z,11.73
2019-04-03T05:46:12.484Z,11.37
2019-04-03T05:47:16.615Z,9.60
2019-04-03T05:48:20.781Z,8.30
2019-04-03T05:49:24.980Z,7.75
2019-04-03T05:50:30.763Z,9.83
2019-04-03T05:51:35.044Z,8.30
2019-04-03T05:52:39.221Z,7.75
2019-04-03T05:53:43.429Z,9.60
2019-04-03T05:54:47.759Z,8.28
2019-04-03T05:55:52.033Z,8.88
2019-04-03T05:56:56.428Z,8.85
2019-04-03T05:58:00.847Z,9.55
2019-04-03T05:59:04.989Z,9.75
2019-04-03T06:00:09.190Z,8.30
2019-04-03T06:01:13.465Z,8.47
2019-04-03T06:02:20.418Z,11.77
2019-04-03T06:03:37.686Z,7.50
2019-04-03T06:04:29.404Z,7.83
2019-04-03T06:05:34.875Z,9.13
2019-04-03T06:06:38.953Z,11.70
2019-04-03T06:07:43.141Z,7.97
2019-04-03T06:08:47.468Z,10.40
2019-04-03T06:09:51.904Z,9.05
2019-04-03T06:10:57.489Z,8.65
2019-04-03T06:12:01.654Z,7.85
2019-04-03T06:13:06.315Z,11.70
2019-04-03T06:14:10.628Z,9.23
2019-04-03T06:15:14.809Z,8.53
2019-04-03T06:16:19.081Z,8.38
2019-04-03T06:17:23.518Z,6.03
2019-04-03T06:18:29.764Z,9.10
2019-04-03T06:19:35.468Z,8.18
2019-04-03T06:20:39.784Z,8.23
2019-04-03T06:21:46.240Z,8.83
2019-04-03T06:22:51.070Z,10.18
2019-04-03T06:23:56.460Z,7.53
2019-04-03T06:25:00.624Z,8.30
2019-04-03T06:26:05.047Z,10.13
2019-04-03T06:27:10.364Z,9.33
2019-04-03T06:28:14.797Z,8.83
2019-04-03T06:29:19.658Z,8.00
2019-04-03T06:30:24.996Z,7.92
2019-04-03T06:31:29.960Z,12.00
2019-04-03T06:32:34.301Z,7.83
2019-04-03T06:33:38.460Z,7.30
2019-04-03T06:34:44.547Z,9.20
2019-04-03T06:35:48.786Z,7.12
2019-04-03T06:36:52.967Z,7.53
2019-04-03T06:37:57.195Z,9.07
2019-04-03T06:39:01.484Z,8.40
2019-04-03T06:40:09.008Z,6.58
2019-04-03T06:41:13.174Z,7.70
2019-04-03T06:42:17.447Z,9.17
2019-04-03T06:43:21.649Z,7.87
2019-04-03T06:44:26.205Z,7.20
2019-04-03T06:45:30.363Z,7.10
2019-04-03T06:46:34.614Z,8.25
2019-04-03T06:47:39.007Z,8.28
2019-04-03T06:48:43.180Z,8.98
2019-04-03T06:49:48.823Z,8.28
2019-04-03T06:50:52.989Z,6.35
2019-04-03T06:51:57.156Z,6.15
2019-04-03T06:53:01.348Z,7.40
2019-04-03T06:54:08.963Z,8.60
2019-04-03T06:55:13.127Z,9.83
2019-04-03T06:56:18.172Z,10.03
2019-04-03T06:57:22.364Z,8.13
2019-04-03T06:58:36.937Z,9.68
2019-04-03T06:59:32.663Z,7.62
2019-04-03T07:00:36.840Z,8.15
2019-04-03T07:01:41.055Z,6.42
2019-04-03T07:02:45.222Z,8.98
2019-04-03T07:03:49.434Z,7.60
2019-04-03T07:04:53.598Z,7.35
2019-04-03T07:05:57.832Z,6.95
2019-04-03T07:07:02.228Z,7.80
2019-04-03T07:08:06.448Z,8.10
2019-04-03T07:09:21.679Z,7.20
2019-04-03T07:10:25.085Z,8.83
2019-04-03T07:11:24.044Z,8.43
2019-04-03T07:12:29.447Z,8.25
2019-04-03T07:13:33.601Z,8.18
2019-04-03T07:14:37.781Z,8.45
2019-04-03T07:15:42.017Z,11.30
2019-04-03T07:16:46.263Z,8.58
2019-04-03T07:17:51.649Z,11.05
2019-04-03T07:18:55.836Z,9.60
2019-04-03T07:20:12.519Z,9.63
2019-04-03T07:21:06.185Z,9.50
2019-04-03T07:22:11.463Z,10.30
2019-04-03T07:23:15.684Z,9.17
2019-04-03T07:24:20.168Z,8.40
2019-04-03T07:25:24.799Z,8.15
2019-04-03T07:26:28.953Z,7.50
2019-04-03T07:27:34.874Z,7.85
2019-04-03T07:28:41.633Z,9.35
2019-04-03T07:29:45.054Z,6.65
2019-04-03T07:30:52.360Z,8.73
2019-04-03T07:31:55.723Z,8.55
2019-04-03T07:33:00.078Z,7.15
2019-04-03T07:34:04.260Z,7.10
2019-04-03T07:35:10.110Z,6.85
2019-04-03T07:36:14.413Z,6.70
2019-04-03T07:37:20.038Z,5.83
2019-04-03T07:38:24.650Z,6.92
2019-04-03T07:39:28.855Z,8.03
2019-04-03T07:40:33.278Z,8.45
2019-04-03T07:41:40.430Z,7.70
2019-04-03T07:42:43.779Z,7.22
2019-04-03T07:43:48.344Z,6.62
2019-04-03T07:44:52.538Z,7.30
2019-04-03T07:45:56.677Z,6.78
2019-04-03T07:47:03.347Z,8.20
2019-04-03T07:48:07.097Z,8.18
2019-04-03T07:49:13.798Z,7.67
2019-04-03T07:50:17.299Z,7.67
2019-04-03T07:51:21.538Z,8.60
2019-04-03T07:52:25.934Z,8.40
2019-04-03T07:53:30.138Z,7.45
2019-04-03T07:54:34.304Z,9.00
2019-04-03T07:55:38.476Z,10.25
2019-04-03T07:56:43.164Z,8.45
2019-04-03T07:57:47.640Z,7.10
2019-04-03T07:58:51.861Z,9.15
2019-04-03T07:59:56.112Z,9.05
2019-04-03T08:01:00.263Z,7.85
2019-04-03T08:02:05.332Z,7.14
2019-04-03T08:03:09.535Z,9.55
2019-04-03T08:04:15.838Z,4.77
2019-04-03T08:05:22.294Z,4.10
2019-04-03T08:06:26.746Z,2.92
2019-04-03T08:07:30.873Z,4.17
2019-04-03T08:08:35.875Z,2.85
2019-04-03T08:09:40.186Z,1.77
2019-04-03T08:10:44.828Z,3.33
2019-04-03T08:11:49.203Z,2.10
2019-04-03T08:12:53.374Z,3.15
2019-04-03T08:13:57.839Z,1.62
2019-04-03T08:15:02.036Z,1.82
2019-04-03T08:16:06.194Z,1.10
2019-04-03T08:17:10.367Z,1.77
2019-04-03T08:18:14.532Z,0.87
2019-04-03T08:19:18.813Z,1.40
2019-04-03T08:20:24.031Z,1.23
2019-04-03T08:21:30.481Z,0.50
2019-04-03T08:22:35.856Z,2.80
2019-04-03T08:23:42.915Z,0.70
2019-04-03T08:24:47.560Z,1.52
2019-04-03T08:25:57.330Z,3.12
2019-04-03T08:27:00.374Z,0.75
2019-04-03T08:28:05.233Z,0.50
2019-04-03T08:29:09.383Z,0.80
2019-04-03T08:30:13.923Z,0.67
2019-04-03T08:31:19.775Z,0.93
2019-04-03T08:32:24.209Z,0.88
2019-04-03T08:33:28.388Z,0.53
2019-04-03T08:34:38.255Z,1.00
2019-04-03T08:35:43.127Z,1.72
2019-04-03T08:36:47.529Z,1.80
2019-04-03T08:37:51.678Z,0.60
2019-04-03T08:38:55.871Z,0.85
2019-04-03T08:40:00.036Z,0.60
2019-04-03T08:41:04.812Z,0.65
2019-04-03T08:42:09.207Z,1.52
2019-04-03T08:43:13.455Z,0.60
2019-04-03T08:44:18.239Z,0.57
2019-04-03T08:45:23.771Z,0.50
2019-04-03T08:46:27.951Z,1.32
2019-04-03T08:47:32.288Z,1.02
2019-04-03T08:48:36.448Z,1.10
2019-04-03T08:49:40.957Z,2.27
2019-04-03T08:50:45.157Z,0.80
2019-04-03T08:51:49.327Z,2.35
2019-04-03T08:52:53.519Z,1.45
2019-04-03T08:53:58.299Z,0.80
2019-04-03T08:55:06.645Z,0.50
2019-04-03T08:56:10.920Z,1.03
2019-04-03T08:57:15.046Z,2.73
2019-04-03T08:58:20.969Z,1.50
2019-04-03T08:59:28.777Z,1.00
2019-04-03T09:00:34.950Z,1.12
2019-04-03T09:01:39.412Z,0.50
2019-04-03T09:02:44.115Z,1.57
2019-04-03T09:03:48.779Z,0.85
2019-04-03T09:04:53.031Z,1.50
2019-04-03T09:05:57.423Z,0.80
2019-04-03T09:07:06.511Z,0.70
2019-04-03T09:08:10.828Z,0.83
2019-04-03T09:09:15.044Z,1.07
2019-04-03T09:10:19.492Z,1.53
2019-04-03T09:11:23.677Z,0.75
2019-04-03T09:12:28.109Z,1.70
2019-04-03T09:13:32.411Z,2.33
2019-04-03T09:14:36.537Z,1.42
2019-04-03T09:15:40.773Z,1.00
2019-04-03T09:16:44.939Z,1.27
2019-04-03T09:17:49.160Z,1.35
2019-04-03T09:18:53.550Z,1.43
2019-04-03T09:19:57.764Z,4.12
2019-04-03T09:21:01.939Z,2.70
2019-04-03T09:22:06.346Z,1.50
2019-04-03T09:23:11.513Z,2.33
2019-04-03T09:24:15.878Z,1.37
2019-04-03T09:25:20.499Z,1.10
2019-04-03T09:26:24.804Z,2.02
2019-04-03T09:27:28.972Z,1.72
2019-04-03T09:28:33.286Z,2.35
2019-04-03T09:29:37.473Z,1.60
2019-04-03T09:30:41.704Z,0.90
2019-04-03T09:31:46.227Z,1.12
2019-04-03T09:32:53.750Z,1.85
2019-04-03T09:33:58.642Z,2.02
2019-04-03T09:35:02.971Z,1.27
2019-04-03T09:36:07.138Z,1.62
2019-04-03T09:37:11.349Z,1.87
2019-04-03T09:38:15.659Z,1.00
2019-04-03T09:39:21.734Z,1.57
2019-04-03T09:40:25.896Z,1.75
2019-04-03T09:41:30.177Z,0.60
2019-04-03T09:42:34.387Z,0.88
2019-04-03T09:43:39.922Z,1.10
2019-04-03T09:44:44.315Z,0.75
2019-04-03T09:45:48.550Z,0.80
2019-04-03T09:46:53.097Z,0.75
2019-04-03T09:47:57.257Z,1.30
2019-04-03T09:49:01.428Z,0.78
2019-04-03T09:50:07.574Z,0.60
2019-04-03T09:51:12.081Z,0.60
2019-04-03T09:52:16.572Z,0.83
2019-04-03T09:53:20.737Z,0.90
2019-04-03T09:54:28.789Z,1.02
2019-04-03T09:55:36.242Z,1.07
2019-04-03T09:56:54.907Z,0.90
2019-04-03T09:57:44.831Z,1.72
2019-04-03T09:58:49.499Z,0.60
2019-04-03T09:59:54.994Z,0.93
2019-04-03T10:00:59.100Z,4.12
2019-04-03T10:02:05.948Z,0.72
2019-04-03T10:03:10.112Z,1.57
2019-04-03T10:04:14.664Z,1.17
2019-04-03T10:05:18.816Z,1.20
2019-04-03T10:06:24.287Z,0.80
2019-04-03T10:07:30.973Z,1.15
2019-04-03T10:08:34.383Z,1.32
2019-04-03T10:09:39.192Z,1.00
2019-04-03T10:10:44.968Z,3.83
2019-04-03T10:11:51.538Z,0.70
2019-04-03T10:12:55.368Z,0.80
2019-04-03T10:13:59.561Z,2.05
2019-04-03T10:15:09.027Z,0.88
2019-04-03T10:16:16.135Z,0.70
2019-04-03T10:17:21.556Z,1.00
2019-04-03T10:18:28.653Z,1.65
2019-04-03T10:19:34.574Z,1.35
2019-04-03T10:20:38.775Z,0.85
2019-04-03T10:21:43.095Z,0.80
2019-04-03T10:22:47.403Z,1.67
2019-04-03T10:23:51.547Z,0.88
2019-04-03T10:24:59.403Z,1.15
2019-04-03T10:26:02.596Z,2.55
2019-04-03T10:27:07.152Z,1.00
2019-04-03T10:28:13.658Z,1.47
2019-04-03T10:29:19.664Z,0.90
2019-04-03T10:30:24.336Z,1.77
2019-04-03T10:31:28.508Z,1.07
2019-04-03T10:32:32.696Z,1.22
2019-04-03T10:33:36.862Z,2.05
2019-04-03T10:34:43.657Z,0.65
2019-04-03T10:35:47.939Z,0.80
2019-04-03T10:36:52.105Z,1.20
2019-04-03T10:37:56.384Z,1.30
2019-04-03T10:39:00.593Z,0.82
2019-04-03T10:40:08.032Z,1.07
2019-04-03T10:41:12.252Z,1.80
2019-04-03T10:42:16.505Z,1.00
2019-04-03T10:43:21.026Z,1.30
2019-04-03T10:44:25.304Z,0.70
2019-04-03T10:45:29.434Z,1.70
2019-04-03T10:46:33.779Z,1.37
2019-04-03T10:47:42.378Z,1.35
2019-04-03T10:48:43.822Z,0.88
2019-04-03T10:49:48.335Z,1.67
2019-04-03T10:50:52.448Z,0.80
2019-04-03T10:51:56.793Z,0.62
2019-04-03T10:53:01.153Z,0.80
2019-04-03T10:54:05.294Z,0.60
2019-04-03T10:55:09.545Z,0.90
2019-04-03T10:56:13.713Z,1.50
2019-04-03T10:57:18.001Z,1.03
2019-04-03T10:58:22.219Z,0.73
2019-04-03T10:59:26.960Z,0.80
2019-04-03T11:00:31.283Z,0.70
2019-04-03T11:01:35.711Z,1.12
2019-04-03T11:02:40.185Z,0.78
2019-04-03T11:03:44.327Z,1.10
2019-04-03T11:04:48.601Z,0.95
2019-04-03T11:05:52.983Z,1.85
2019-04-03T11:06:57.220Z,1.07
2019-04-03T11:08:01.579Z,0.88
2019-04-03T11:09:07.718Z,1.37
2019-04-03T11:10:11.989Z,1.10
2019-04-03T11:11:16.263Z,1.10
2019-04-03T11:12:20.506Z,0.75
2019-04-03T11:13:24.867Z,1.12
2019-04-03T11:14:29.276Z,0.88
2019-04-03T11:15:33.672Z,1.15
2019-04-03T11:16:39.153Z,1.15
2019-04-03T11:17:43.673Z,1.50
2019-04-03T11:18:58.030Z,0.80
2019-04-03T11:19:53.934Z,0.98
2019-04-03T11:20:58.383Z,0.72
2019-04-03T11:22:02.949Z,0.93
2019-04-03T11:23:08.601Z,0.95
2019-04-03T11:24:13.425Z,0.80
2019-04-03T11:25:17.562Z,1.70
2019-04-03T11:26:24.017Z,0.73
2019-04-03T11:27:40.875Z,1.00
2019-04-03T11:28:36.980Z,1.30
2019-04-03T11:29:41.900Z,0.95
2019-04-03T11:30:45.251Z,1.32
2019-04-03T11:31:49.620Z,1.25
2019-04-03T11:32:53.920Z,1.20
2019-04-03T11:33:58.414Z,0.85
2019-04-03T11:35:02.880Z,0.78
2019-04-03T11:36:07.039Z,0.98
2019-04-03T11:37:11.195Z,2.00
2019-04-03T11:38:25.707Z,1.03
2019-04-03T11:39:22.046Z,0.90
2019-04-03T11:40:26.175Z,2.25
2019-04-03T11:41:30.418Z,1.62
2019-04-03T11:42:34.654Z,1.32
2019-04-03T11:43:40.823Z,0.80
2019-04-03T11:44:45.179Z,1.60
2019-04-03T11:45:49.634Z,1.45
2019-04-03T11:46:53.783Z,1.05
2019-04-03T11:47:57.949Z,1.30
2019-04-03T11:49:03.755Z,2.08
2019-04-03T11:50:08.461Z,1.25
2019-04-03T11:51:13.062Z,1.20
2019-04-03T11:52:17.396Z,0.97
2019-04-03T11:53:21.663Z,1.10
2019-04-03T11:54:26.037Z,1.60
2019-04-03T11:55:31.036Z,1.10
2019-04-03T11:56:35.181Z,1.42
2019-04-03T11:57:39.352Z,1.50
2019-04-03T11:58:43.602Z,2.23
2019-04-03T11:59:47.901Z,1.85
2019-04-03T12:00:53.225Z,2.25
2019-04-03T12:01:57.639Z,2.17
2019-04-03T12:03:02.529Z,2.77
2019-04-03T12:04:07.009Z,1.47
2019-04-03T12:05:14.748Z,1.40
2019-04-03T12:06:19.678Z,1.60
2019-04-03T12:07:25.110Z,1.37
2019-04-03T12:08:29.482Z,2.05
2019-04-03T12:09:33.757Z,1.30
2019-04-03T12:10:38.125Z,2.92
2019-04-03T12:11:42.303Z,1.70
2019-04-03T12:12:49.258Z,1.60
2019-04-03T12:13:53.473Z,1.42
2019-04-03T12:14:57.640Z,2.60
2019-04-03T12:16:02.095Z,2.85
2019-04-03T12:17:06.257Z,3.15
2019-04-03T12:18:10.804Z,2.03
2019-04-03T12:19:17.717Z,1.30
2019-04-03T12:20:21.881Z,1.73
2019-04-03T12:21:28.006Z,3.60
2019-04-03T12:22:32.370Z,1.75
2019-04-03T12:23:39.174Z,2.15
2019-04-03T12:24:42.754Z,2.57
2019-04-03T12:25:47.171Z,2.22
2019-04-03T12:26:52.540Z,2.33
2019-04-03T12:27:57.287Z,2.25
2019-04-03T12:29:01.548Z,2.05
2019-04-03T12:30:08.040Z,1.92
2019-04-03T12:31:12.229Z,2.23
2019-04-03T12:32:16.607Z,2.00
2019-04-03T12:33:21.749Z,1.70
2019-04-03T12:34:26.155Z,1.70
2019-04-03T12:35:30.327Z,3.90
2019-04-03T12:36:34.785Z,1.70
2019-04-03T12:37:39.307Z,3.20
2019-04-03T12:38:43.563Z,2.90
2019-04-03T12:39:47.732Z,1.98
2019-04-03T12:40:51.898Z,2.37
2019-04-03T12:41:56.159Z,1.90
2019-04-03T12:43:00.662Z,2.60
2019-04-03T12:44:04.831Z,1.67
2019-04-03T12:45:09.527Z,2.25
2019-04-03T12:46:14.195Z,2.97
2019-04-03T12:47:18.531Z,2.97
2019-04-03T12:48:22.702Z,2.70
2019-04-03T12:49:26.942Z,2.53
2019-04-03T12:50:31.225Z,2.12
2019-04-03T12:51:35.405Z,2.60
2019-04-03T12:52:39.773Z,3.90
2019-04-03T12:53:43.916Z,3.37
2019-04-03T12:54:54.699Z,2.42
2019-04-03T12:55:58.924Z,3.27
2019-04-03T12:57:05.893Z,2.52
2019-04-03T12:58:10.081Z,1.73
2019-04-03T12:59:14.401Z,2.10
2019-04-03T13:00:20.409Z,2.47
2019-04-03T13:01:24.665Z,2.10
2019-04-03T13:02:28.939Z,3.95
2019-04-03T13:03:36.221Z,3.52
2019-04-03T13:04:39.016Z,3.55
2019-04-03T13:05:43.184Z,4.03
2019-04-03T13:06:47.721Z,6.53
2019-04-03T13:07:51.839Z,1.95
2019-04-03T13:08:56.037Z,1.67
2019-04-03T13:10:01.814Z,1.50
2019-04-03T13:11:07.493Z,2.62
2019-04-03T13:12:11.948Z,4.80
2019-04-03T13:13:16.267Z,1.90
2019-04-03T13:14:25.158Z,2.03
2019-04-03T13:15:26.309Z,1.60
2019-04-03T13:16:30.976Z,1.77
2019-04-03T13:17:35.213Z,1.85
2019-04-03T13:18:39.375Z,4.55
2019-04-03T13:19:43.543Z,4.83
2019-04-03T13:20:47.782Z,3.15
2019-04-03T13:21:52.080Z,2.05
2019-04-03T13:22:56.245Z,2.50
2019-04-03T13:24:00.867Z,1.30
2019-04-03T13:25:06.768Z,2.22
2019-04-03T13:26:11.292Z,1.87
2019-04-03T13:27:15.584Z,2.10
2019-04-03T13:28:19.792Z,1.87
2019-04-03T13:29:23.961Z,2.22
2019-04-03T13:30:28.133Z,3.17
2019-04-03T13:31:32.374Z,1.95
2019-04-03T13:32:36.581Z,2.55
2019-04-03T13:33:40.942Z,1.72
2019-04-03T13:34:45.166Z,1.85
2019-04-03T13:35:49.610Z,2.15
2019-04-03T13:36:54.138Z,2.00
2019-04-03T13:37:58.368Z,2.17
2019-04-03T13:39:04.305Z,1.75
2019-04-03T13:40:09.325Z,2.80
2019-04-03T13:41:13.521Z,2.07
2019-04-03T13:42:17.725Z,2.50
2019-04-03T13:43:22.628Z,2.07
2019-04-03T13:44:28.121Z,3.35
2019-04-03T13:45:32.711Z,3.12
2019-04-03T13:46:37.480Z,3.42
2019-04-03T13:47:43.547Z,3.22
2019-04-03T13:48:47.653Z,2.20
2019-04-03T13:49:52.070Z,1.90
2019-04-03T13:50:57.419Z,3.42
2019-04-03T13:52:07.163Z,2.12
2019-04-03T13:53:07.649Z,2.42
2019-04-03T13:54:11.793Z,2.00
2019-04-03T13:55:15.968Z,2.07
2019-04-03T13:56:23.054Z,1.83
2019-04-03T13:57:26.117Z,2.27
2019-04-03T13:58:30.604Z,2.22
2019-04-03T13:59:35.992Z,2.22
2019-04-03T14:00:40.704Z,2.00
2019-04-03T14:01:45.312Z,2.92
2019-04-03T14:02:49.432Z,2.98
2019-04-03T14:03:54.216Z,2.50
2019-04-03T14:04:58.576Z,2.33
2019-04-03T14:06:05.569Z,3.20
2019-04-03T14:07:11.372Z,2.90
2019-04-03T14:08:15.503Z,2.43
2019-04-03T14:09:20.102Z,2.53
2019-04-03T14:10:26.941Z,3.60
2019-04-03T14:11:30.901Z,2.87
2019-04-03T14:12:38.273Z,4.53
2019-04-03T14:13:43.567Z,2.55
2019-04-03T14:14:48.458Z,3.40
2019-04-03T14:15:54.809Z,1.75
2019-04-03T14:16:58.639Z,1.90
2019-04-03T14:18:02.846Z,1.52
2019-04-03T14:19:07.106Z,2.05
2019-04-03T14:20:11.417Z,4.87